sensor_id;sensor_type;location;lat;lon;timestamp;temperature;humidity
73955;DHT22;62306;52.516;13.290;2023-05-31T00:02:22;15.00;63.80
73955;DHT22;62306;52.516;13.290;2023-05-31T00:04:48;15.00;64.40
73955;DHT22;62306;52.516;13.290;2023-05-31T00:07:15;14.90;64.50
73955;DHT22;62306;52.516;13.290;2023-05-31T00:09:42;14.80;64.70
73955;DHT22;62306;52.516;13.290;2023-05-31T00:12:09;14.80;65.20
73955;DHT22;62306;52.516;13.290;2023-05-31T00:14:36;14.80;65.10
73955;DHT22;62306;52.516;13.290;2023-05-31T00:17:05;14.90;65.00
73955;DHT22;62306;52.516;13.290;2023-05-31T00:19:31;14.80;65.00
73955;DHT22;62306;52.516;13.290;2023-05-31T00:21:58;14.70;65.40
73955;DHT22;62306;52.516;13.290;2023-05-31T00:24:25;14.70;65.50
73955;DHT22;62306;52.516;13.290;2023-05-31T00:26:52;14.60;66.10
73955;DHT22;62306;52.516;13.290;2023-05-31T00:29:18;14.60;66.30
73955;DHT22;62306;52.516;13.290;2023-05-31T00:31:45;14.50;66.40
73955;DHT22;62306;52.516;13.290;2023-05-31T00:34:13;14.40;66.70
73955;DHT22;62306;52.516;13.290;2023-05-31T00:36:40;14.40;66.80
73955;DHT22;62306;52.516;13.290;2023-05-31T00:39:07;14.40;67.00
73955;DHT22;62306;52.516;13.290;2023-05-31T00:41:33;14.30;67.40
73955;DHT22;62306;52.516;13.290;2023-05-31T00:44:00;14.20;67.40
73955;DHT22;62306;52.516;13.290;2023-05-31T00:46:28;14.30;68.00
73955;DHT22;62306;52.516;13.290;2023-05-31T00:48:54;14.30;67.90
73955;DHT22;62306;52.516;13.290;2023-05-31T00:51:23;14.20;68.20
73955;DHT22;62306;52.516;13.290;2023-05-31T00:53:50;14.30;68.40
73955;DHT22;62306;52.516;13.290;2023-05-31T00:56:18;14.30;68.20
73955;DHT22;62306;52.516;13.290;2023-05-31T00:58:47;14.40;68.20
73955;DHT22;62306;52.516;13.290;2023-05-31T01:01:16;14.40;68.30
73955;DHT22;62306;52.516;13.290;2023-05-31T01:03:43;14.40;68.40
73955;DHT22;62306;52.516;13.290;2023-05-31T01:06:10;14.40;68.40
73955;DHT22;62306;52.516;13.290;2023-05-31T01:08:38;14.40;68.70
73955;DHT22;62306;52.516;13.290;2023-05-31T01:11:07;14.30;69.30
73955;DHT22;62306;52.516;13.290;2023-05-31T01:13:37;14.20;69.30
73955;DHT22;62306;52.516;13.290;2023-05-31T01:16:06;14.20;69.70
73955;DHT22;62306;52.516;13.290;2023-05-31T01:18:35;14.10;70.10
73955;DHT22;62306;52.516;13.290;2023-05-31T01:21:02;14.10;70.10
73955;DHT22;62306;52.516;13.290;2023-05-31T01:23:34;14.00;70.30
73955;DHT22;62306;52.516;13.290;2023-05-31T01:26:28;13.90;70.60
73955;DHT22;62306;52.516;13.290;2023-05-31T01:28:57;13.90;71.10
73955;DHT22;62306;52.516;13.290;2023-05-31T01:31:26;13.90;71.10
73955;DHT22;62306;52.516;13.290;2023-05-31T01:33:53;13.90;71.10
73955;DHT22;62306;52.516;13.290;2023-05-31T01:36:19;13.80;71.40
73955;DHT22;62306;52.516;13.290;2023-05-31T01:38:46;13.80;71.60
73955;DHT22;62306;52.516;13.290;2023-05-31T01:41:13;13.80;71.80
73955;DHT22;62306;52.516;13.290;2023-05-31T01:43:43;13.80;72.00
73955;DHT22;62306;52.516;13.290;2023-05-31T01:46:10;13.70;72.10
73955;DHT22;62306;52.516;13.290;2023-05-31T01:48:39;13.70;72.00
73955;DHT22;62306;52.516;13.290;2023-05-31T01:51:06;13.70;72.20
73955;DHT22;62306;52.516;13.290;2023-05-31T01:53:37;13.60;72.30
73955;DHT22;62306;52.516;13.290;2023-05-31T01:56:04;13.60;72.70
73955;DHT22;62306;52.516;13.290;2023-05-31T01:58:31;13.60;72.80
73955;DHT22;62306;52.516;13.290;2023-05-31T02:00:59;13.50;73.00
73955;DHT22;62306;52.516;13.290;2023-05-31T02:03:26;13.50;73.40
73955;DHT22;62306;52.516;13.290;2023-05-31T02:05:56;13.40;73.60
73955;DHT22;62306;52.516;13.290;2023-05-31T02:08:23;13.30;74.10
73955;DHT22;62306;52.516;13.290;2023-05-31T02:10:50;13.30;74.50
73955;DHT22;62306;52.516;13.290;2023-05-31T02:13:17;13.30;74.60
73955;DHT22;62306;52.516;13.290;2023-05-31T02:15:44;13.30;74.70
73955;DHT22;62306;52.516;13.290;2023-05-31T02:18:12;13.20;74.70
73955;DHT22;62306;52.516;13.290;2023-05-31T02:20:42;13.20;74.80
73955;DHT22;62306;52.516;13.290;2023-05-31T02:23:09;13.10;75.40
73955;DHT22;62306;52.516;13.290;2023-05-31T02:25:35;13.10;75.60
73955;DHT22;62306;52.516;13.290;2023-05-31T02:28:02;13.10;76.00
73955;DHT22;62306;52.516;13.290;2023-05-31T02:30:30;13.00;75.80
73955;DHT22;62306;52.516;13.290;2023-05-31T02:32:57;13.00;76.10
73955;DHT22;62306;52.516;13.290;2023-05-31T02:35:26;13.00;76.30
73955;DHT22;62306;52.516;13.290;2023-05-31T02:37:53;12.90;76.30
73955;DHT22;62306;52.516;13.290;2023-05-31T02:40:20;12.90;76.40
73955;DHT22;62306;52.516;13.290;2023-05-31T02:42:47;12.90;76.50
73955;DHT22;62306;52.516;13.290;2023-05-31T02:45:13;12.90;76.70
73955;DHT22;62306;52.516;13.290;2023-05-31T02:47:40;12.80;76.80
73955;DHT22;62306;52.516;13.290;2023-05-31T02:50:07;12.80;77.00
73955;DHT22;62306;52.516;13.290;2023-05-31T02:52:36;12.70;77.30
73955;DHT22;62306;52.516;13.290;2023-05-31T02:55:03;12.70;77.80
73955;DHT22;62306;52.516;13.290;2023-05-31T02:57:30;12.60;77.80
73955;DHT22;62306;52.516;13.290;2023-05-31T02:59:57;12.60;78.00
73955;DHT22;62306;52.516;13.290;2023-05-31T03:02:24;12.60;77.90
73955;DHT22;62306;52.516;13.290;2023-05-31T03:04:51;12.60;78.10
73955;DHT22;62306;52.516;13.290;2023-05-31T03:07:18;12.60;78.20
73955;DHT22;62306;52.516;13.290;2023-05-31T03:09:46;12.70;78.10
73955;DHT22;62306;52.516;13.290;2023-05-31T03:12:13;12.70;78.60
73955;DHT22;62306;52.516;13.290;2023-05-31T03:14:40;12.70;78.10
73955;DHT22;62306;52.516;13.290;2023-05-31T03:17:06;12.70;78.20
73955;DHT22;62306;52.516;13.290;2023-05-31T03:19:33;12.80;78.20
73955;DHT22;62306;52.516;13.290;2023-05-31T03:22:00;12.80;78.10
73955;DHT22;62306;52.516;13.290;2023-05-31T03:24:27;12.80;78.30
73955;DHT22;62306;52.516;13.290;2023-05-31T03:26:55;12.80;78.50
73955;DHT22;62306;52.516;13.290;2023-05-31T03:29:22;12.80;78.30
73955;DHT22;62306;52.516;13.290;2023-05-31T03:31:49;12.70;78.40
73955;DHT22;62306;52.516;13.290;2023-05-31T03:34:16;12.70;78.50
73955;DHT22;62306;52.516;13.290;2023-05-31T03:36:42;12.60;78.60
73955;DHT22;62306;52.516;13.290;2023-05-31T03:39:09;12.60;78.60
73955;DHT22;62306;52.516;13.290;2023-05-31T03:41:36;12.60;78.60
73955;DHT22;62306;52.516;13.290;2023-05-31T03:44:04;12.60;78.70
73955;DHT22;62306;52.516;13.290;2023-05-31T03:46:30;12.60;78.70
73955;DHT22;62306;52.516;13.290;2023-05-31T03:48:57;12.60;79.00
73955;DHT22;62306;52.516;13.290;2023-05-31T03:51:24;12.60;79.10
73955;DHT22;62306;52.516;13.290;2023-05-31T03:53:51;12.70;79.20
73955;DHT22;62306;52.516;13.290;2023-05-31T03:56:17;12.70;78.60
73955;DHT22;62306;52.516;13.290;2023-05-31T03:58:44;12.70;78.60
73955;DHT22;62306;52.516;13.290;2023-05-31T04:01:12;12.70;78.70
73955;DHT22;62306;52.516;13.290;2023-05-31T04:03:39;12.70;79.20
73955;DHT22;62306;52.516;13.290;2023-05-31T04:06:06;12.70;79.20
73955;DHT22;62306;52.516;13.290;2023-05-31T04:08:33;12.80;79.00
73955;DHT22;62306;52.516;13.290;2023-05-31T04:11:00;12.10;77.60
73955;DHT22;62306;52.516;13.290;2023-05-31T04:13:27;13.00;78.00
73955;DHT22;62306;52.516;13.290;2023-05-31T04:15:54;13.00;77.90
73955;DHT22;62306;52.516;13.290;2023-05-31T04:18:22;13.10;78.00
73955;DHT22;62306;52.516;13.290;2023-05-31T04:20:49;13.10;77.80
73955;DHT22;62306;52.516;13.290;2023-05-31T04:23:17;13.10;77.70
73955;DHT22;62306;52.516;13.290;2023-05-31T04:25:43;13.20;77.80
73955;DHT22;62306;52.516;13.290;2023-05-31T04:28:10;13.20;77.90
73955;DHT22;62306;52.516;13.290;2023-05-31T04:30:38;13.30;77.90
73955;DHT22;62306;52.516;13.290;2023-05-31T04:33:04;13.40;77.80
73955;DHT22;62306;52.516;13.290;2023-05-31T04:35:33;13.50;77.50
73955;DHT22;62306;52.516;13.290;2023-05-31T04:37:59;13.60;76.90
73955;DHT22;62306;52.516;13.290;2023-05-31T04:40:28;13.70;76.40
73955;DHT22;62306;52.516;13.290;2023-05-31T04:42:57;13.70;76.10
73955;DHT22;62306;52.516;13.290;2023-05-31T04:45:24;13.70;76.00
73955;DHT22;62306;52.516;13.290;2023-05-31T04:47:50;13.70;76.40
73955;DHT22;62306;52.516;13.290;2023-05-31T04:50:17;13.70;76.00
73955;DHT22;62306;52.516;13.290;2023-05-31T04:52:46;13.70;76.20
73955;DHT22;62306;52.516;13.290;2023-05-31T04:55:12;13.80;76.20
73955;DHT22;62306;52.516;13.290;2023-05-31T04:57:39;13.80;75.80
73955;DHT22;62306;52.516;13.290;2023-05-31T05:00:06;13.90;75.60
73955;DHT22;62306;52.516;13.290;2023-05-31T05:02:35;14.10;74.50
73955;DHT22;62306;52.516;13.290;2023-05-31T05:05:01;14.20;73.90
73955;DHT22;62306;52.516;13.290;2023-05-31T05:07:30;14.80;72.80
73955;DHT22;62306;52.516;13.290;2023-05-31T05:09:58;15.30;70.30
73955;DHT22;62306;52.516;13.290;2023-05-31T05:12:25;15.60;69.50
73955;DHT22;62306;52.516;13.290;2023-05-31T05:14:51;16.10;67.70
73955;DHT22;62306;52.516;13.290;2023-05-31T05:17:18;17.30;63.90
73955;DHT22;62306;52.516;13.290;2023-05-31T05:19:46;20.20;56.70
73955;DHT22;62306;52.516;13.290;2023-05-31T05:22:12;22.50;50.20
73955;DHT22;62306;52.516;13.290;2023-05-31T05:24:39;24.60;45.30
73955;DHT22;62306;52.516;13.290;2023-05-31T05:27:07;25.90;42.30
73955;DHT22;62306;52.516;13.290;2023-05-31T05:29:34;26.90;40.10
73955;DHT22;62306;52.516;13.290;2023-05-31T05:32:01;27.30;38.60
73955;DHT22;62306;52.516;13.290;2023-05-31T05:34:28;27.00;38.90
73955;DHT22;62306;52.516;13.290;2023-05-31T05:36:54;27.60;38.10
73955;DHT22;62306;52.516;13.290;2023-05-31T05:39:22;28.80;36.70
73955;DHT22;62306;52.516;13.290;2023-05-31T05:41:49;29.20;35.90
73955;DHT22;62306;52.516;13.290;2023-05-31T05:44:17;30.00;34.80
73955;DHT22;62306;52.516;13.290;2023-05-31T05:46:44;29.70;35.10
73955;DHT22;62306;52.516;13.290;2023-05-31T05:49:11;29.60;35.00
73955;DHT22;62306;52.516;13.290;2023-05-31T05:51:38;30.50;34.40
73955;DHT22;62306;52.516;13.290;2023-05-31T05:54:05;30.50;33.90
73955;DHT22;62306;52.516;13.290;2023-05-31T05:56:32;30.70;33.60
73955;DHT22;62306;52.516;13.290;2023-05-31T05:58:59;31.40;32.70
73955;DHT22;62306;52.516;13.290;2023-05-31T06:01:27;30.80;33.00
73955;DHT22;62306;52.516;13.290;2023-05-31T06:03:55;30.30;33.60
73955;DHT22;62306;52.516;13.290;2023-05-31T06:06:21;30.70;33.30
73955;DHT22;62306;52.516;13.290;2023-05-31T06:08:48;31.10;32.80
73955;DHT22;62306;52.516;13.290;2023-05-31T06:11:15;31.00;32.90
73955;DHT22;62306;52.516;13.290;2023-05-31T06:13:43;31.10;32.90
73955;DHT22;62306;52.516;13.290;2023-05-31T06:16:10;31.10;32.90
73955;DHT22;62306;52.516;13.290;2023-05-31T06:18:38;31.50;32.90
73955;DHT22;62306;52.516;13.290;2023-05-31T06:21:05;30.80;32.90
73955;DHT22;62306;52.516;13.290;2023-05-31T06:23:32;30.30;33.00
73955;DHT22;62306;52.516;13.290;2023-05-31T06:25:59;30.20;33.50
73955;DHT22;62306;52.516;13.290;2023-05-31T06:28:26;30.60;33.90
73955;DHT22;62306;52.516;13.290;2023-05-31T06:30:54;29.60;34.10
73955;DHT22;62306;52.516;13.290;2023-05-31T06:33:21;29.70;34.30
73955;DHT22;62306;52.516;13.290;2023-05-31T06:35:50;29.30;34.50
73955;DHT22;62306;52.516;13.290;2023-05-31T06:38:16;29.10;34.90
73955;DHT22;62306;52.516;13.290;2023-05-31T06:40:43;28.10;35.50
73955;DHT22;62306;52.516;13.290;2023-05-31T06:43:10;28.00;37.10
73955;DHT22;62306;52.516;13.290;2023-05-31T06:45:37;27.40;37.90
73955;DHT22;62306;52.516;13.290;2023-05-31T06:48:07;26.20;39.10
73955;DHT22;62306;52.516;13.290;2023-05-31T06:50:33;25.70;40.00
73955;DHT22;62306;52.516;13.290;2023-05-31T06:53:01;24.90;40.60
73955;DHT22;62306;52.516;13.290;2023-05-31T06:55:28;23.90;42.90
73955;DHT22;62306;52.516;13.290;2023-05-31T06:57:56;23.50;43.30
73955;DHT22;62306;52.516;13.290;2023-05-31T07:00:22;23.50;43.70
73955;DHT22;62306;52.516;13.290;2023-05-31T07:02:50;23.50;44.30
73955;DHT22;62306;52.516;13.290;2023-05-31T07:05:17;23.40;43.70
73955;DHT22;62306;52.516;13.290;2023-05-31T07:07:44;23.50;44.50
73955;DHT22;62306;52.516;13.290;2023-05-31T07:10:12;23.70;44.20
73955;DHT22;62306;52.516;13.290;2023-05-31T07:12:39;24.00;43.00
73955;DHT22;62306;52.516;13.290;2023-05-31T07:15:07;23.90;43.00
73955;DHT22;62306;52.516;13.290;2023-05-31T07:17:34;23.90;43.60
73955;DHT22;62306;52.516;13.290;2023-05-31T07:20:01;24.00;43.20
73955;DHT22;62306;52.516;13.290;2023-05-31T07:22:29;24.10;43.20
73955;DHT22;62306;52.516;13.290;2023-05-31T07:24:56;24.00;43.60
73955;DHT22;62306;52.516;13.290;2023-05-31T07:27:24;24.00;43.50
73955;DHT22;62306;52.516;13.290;2023-05-31T07:29:51;24.10;43.30
73955;DHT22;62306;52.516;13.290;2023-05-31T07:32:18;24.20;42.80
73955;DHT22;62306;52.516;13.290;2023-05-31T07:34:45;24.30;42.70
73955;DHT22;62306;52.516;13.290;2023-05-31T07:37:12;24.50;42.10
73955;DHT22;62306;52.516;13.290;2023-05-31T07:39:39;24.70;42.40
73955;DHT22;62306;52.516;13.290;2023-05-31T07:42:06;25.00;42.00
73955;DHT22;62306;52.516;13.290;2023-05-31T07:44:34;25.30;41.00
73955;DHT22;62306;52.516;13.290;2023-05-31T07:47:01;25.20;40.50
73955;DHT22;62306;52.516;13.290;2023-05-31T07:49:28;24.90;41.20
73955;DHT22;62306;52.516;13.290;2023-05-31T07:51:55;25.40;40.80
73955;DHT22;62306;52.516;13.290;2023-05-31T07:54:22;25.60;40.70
73955;DHT22;62306;52.516;13.290;2023-05-31T07:56:49;25.70;40.40
73955;DHT22;62306;52.516;13.290;2023-05-31T07:59:16;25.50;40.30
73955;DHT22;62306;52.516;13.290;2023-05-31T08:01:45;25.40;41.40
73955;DHT22;62306;52.516;13.290;2023-05-31T08:04:12;25.30;40.10
73955;DHT22;62306;52.516;13.290;2023-05-31T08:06:38;25.30;40.40
73955;DHT22;62306;52.516;13.290;2023-05-31T08:09:07;25.30;39.50
73955;DHT22;62306;52.516;13.290;2023-05-31T08:11:34;25.30;40.50
73955;DHT22;62306;52.516;13.290;2023-05-31T08:14:02;25.30;39.80
73955;DHT22;62306;52.516;13.290;2023-05-31T08:16:29;25.60;39.70
73955;DHT22;62306;52.516;13.290;2023-05-31T08:18:57;25.80;38.30
73955;DHT22;62306;52.516;13.290;2023-05-31T08:21:24;26.00;37.90
73955;DHT22;62306;52.516;13.290;2023-05-31T08:23:51;26.20;38.00
73955;DHT22;62306;52.516;13.290;2023-05-31T08:26:18;26.10;38.00
73955;DHT22;62306;52.516;13.290;2023-05-31T08:28:44;26.10;37.70
73955;DHT22;62306;52.516;13.290;2023-05-31T08:31:11;26.00;37.90
73955;DHT22;62306;52.516;13.290;2023-05-31T08:33:38;25.90;38.00
73955;DHT22;62306;52.516;13.290;2023-05-31T08:36:19;25.80;37.80
73955;DHT22;62306;52.516;13.290;2023-05-31T08:38:46;25.80;38.10
73955;DHT22;62306;52.516;13.290;2023-05-31T08:41:13;25.80;37.80
73955;DHT22;62306;52.516;13.290;2023-05-31T08:43:40;25.90;37.60
73955;DHT22;62306;52.516;13.290;2023-05-31T08:46:07;26.10;36.80
73955;DHT22;62306;52.516;13.290;2023-05-31T08:48:35;26.30;36.80
73955;DHT22;62306;52.516;13.290;2023-05-31T08:51:05;26.40;36.40
73955;DHT22;62306;52.516;13.290;2023-05-31T08:53:33;26.20;36.70
73955;DHT22;62306;52.516;13.290;2023-05-31T08:56:01;26.20;36.50
73955;DHT22;62306;52.516;13.290;2023-05-31T08:58:28;26.20;36.20
73955;DHT22;62306;52.516;13.290;2023-05-31T09:00:55;26.20;36.00
73955;DHT22;62306;52.516;13.290;2023-05-31T09:03:22;26.10;35.50
73955;DHT22;62306;52.516;13.290;2023-05-31T09:05:49;26.00;35.10
73955;DHT22;62306;52.516;13.290;2023-05-31T09:08:16;26.00;35.40
73955;DHT22;62306;52.516;13.290;2023-05-31T09:10:45;26.10;35.00
73955;DHT22;62306;52.516;13.290;2023-05-31T09:13:12;26.20;36.20
73955;DHT22;62306;52.516;13.290;2023-05-31T09:15:39;26.20;35.20
73955;DHT22;62306;52.516;13.290;2023-05-31T09:18:14;26.10;33.80
73955;DHT22;62306;52.516;13.290;2023-05-31T09:20:41;27.30;35.30
73955;DHT22;62306;52.516;13.290;2023-05-31T09:23:08;25.80;35.30
73955;DHT22;62306;52.516;13.290;2023-05-31T09:25:46;25.80;35.50
73955;DHT22;62306;52.516;13.290;2023-05-31T09:28:12;26.00;35.90
73955;DHT22;62306;52.516;13.290;2023-05-31T09:30:39;26.20;35.00
73955;DHT22;62306;52.516;13.290;2023-05-31T09:33:06;26.30;34.90
73955;DHT22;62306;52.516;13.290;2023-05-31T09:35:33;26.30;35.00
73955;DHT22;62306;52.516;13.290;2023-05-31T09:38:03;26.20;34.70
73955;DHT22;62306;52.516;13.290;2023-05-31T09:40:30;25.90;35.10
73955;DHT22;62306;52.516;13.290;2023-05-31T09:42:59;25.80;35.00
73955;DHT22;62306;52.516;13.290;2023-05-31T09:45:26;25.80;34.10
73955;DHT22;62306;52.516;13.290;2023-05-31T09:47:53;25.60;34.30
73955;DHT22;62306;52.516;13.290;2023-05-31T09:50:21;25.60;35.10
73955;DHT22;62306;52.516;13.290;2023-05-31T09:52:48;25.60;35.70
73955;DHT22;62306;52.516;13.290;2023-05-31T09:55:17;25.70;35.80
73955;DHT22;62306;52.516;13.290;2023-05-31T09:57:44;25.80;35.70
73955;DHT22;62306;52.516;13.290;2023-05-31T10:00:13;25.90;35.70
73955;DHT22;62306;52.516;13.290;2023-05-31T10:02:42;26.10;35.40
73955;DHT22;62306;52.516;13.290;2023-05-31T10:05:09;26.20;34.50
73955;DHT22;62306;52.516;13.290;2023-05-31T10:07:37;26.00;33.80
73955;DHT22;62306;52.516;13.290;2023-05-31T10:10:05;25.80;34.30
73955;DHT22;62306;52.516;13.290;2023-05-31T10:12:31;25.80;34.90
73955;DHT22;62306;52.516;13.290;2023-05-31T10:15:26;26.00;34.40
73955;DHT22;62306;52.516;13.290;2023-05-31T10:18:28;26.00;33.70
73955;DHT22;62306;52.516;13.290;2023-05-31T10:21:06;26.20;34.30
73955;DHT22;62306;52.516;13.290;2023-05-31T10:23:35;26.20;34.40
73955;DHT22;62306;52.516;13.290;2023-05-31T10:26:04;26.20;35.20
73955;DHT22;62306;52.516;13.290;2023-05-31T10:28:44;26.40;34.50
73955;DHT22;62306;52.516;13.290;2023-05-31T10:31:13;26.60;34.50
73955;DHT22;62306;52.516;13.290;2023-05-31T10:33:42;26.70;33.40
73955;DHT22;62306;52.516;13.290;2023-05-31T10:36:11;26.60;33.80
73955;DHT22;62306;52.516;13.290;2023-05-31T10:38:39;26.70;34.20
73955;DHT22;62306;52.516;13.290;2023-05-31T10:41:09;26.60;33.30
73955;DHT22;62306;52.516;13.290;2023-05-31T10:43:39;26.60;33.80
73955;DHT22;62306;52.516;13.290;2023-05-31T10:46:09;26.50;33.30
73955;DHT22;62306;52.516;13.290;2023-05-31T10:48:43;26.60;33.20
73955;DHT22;62306;52.516;13.290;2023-05-31T10:51:12;27.00;33.40
73955;DHT22;62306;52.516;13.290;2023-05-31T10:53:39;26.70;33.70
73955;DHT22;62306;52.516;13.290;2023-05-31T10:56:06;27.00;34.00
73955;DHT22;62306;52.516;13.290;2023-05-31T10:58:35;27.20;33.60
73955;DHT22;62306;52.516;13.290;2023-05-31T11:01:03;27.50;33.30
73955;DHT22;62306;52.516;13.290;2023-05-31T11:03:32;27.60;32.90
73955;DHT22;62306;52.516;13.290;2023-05-31T11:06:02;27.70;33.00
73955;DHT22;62306;52.516;13.290;2023-05-31T11:08:29;27.70;32.50
73955;DHT22;62306;52.516;13.290;2023-05-31T11:13:57;28.20;32.90
73955;DHT22;62306;52.516;13.290;2023-05-31T11:16:25;26.70;32.20
73955;DHT22;62306;52.516;13.290;2023-05-31T11:19:01;26.60;32.70
73955;DHT22;62306;52.516;13.290;2023-05-31T11:24:26;26.40;33.00
73955;DHT22;62306;52.516;13.290;2023-05-31T11:26:53;27.10;33.40
73955;DHT22;62306;52.516;13.290;2023-05-31T11:29:20;26.20;32.90
73955;DHT22;62306;52.516;13.290;2023-05-31T11:32:00;26.00;33.70
73955;DHT22;62306;52.516;13.290;2023-05-31T11:34:27;26.00;32.80
73955;DHT22;62306;52.516;13.290;2023-05-31T11:36:56;25.80;33.20
73955;DHT22;62306;52.516;13.290;2023-05-31T11:39:23;25.50;33.10
73955;DHT22;62306;52.516;13.290;2023-05-31T11:41:53;25.30;33.80
73955;DHT22;62306;52.516;13.290;2023-05-31T11:44:20;25.50;33.80
73955;DHT22;62306;52.516;13.290;2023-05-31T11:46:47;25.80;33.70
73955;DHT22;62306;52.516;13.290;2023-05-31T11:49:15;26.20;32.00
73955;DHT22;62306;52.516;13.290;2023-05-31T11:51:42;26.40;32.00
73955;DHT22;62306;52.516;13.290;2023-05-31T11:54:10;26.60;32.00
73955;DHT22;62306;52.516;13.290;2023-05-31T11:56:40;26.70;31.60
73955;DHT22;62306;52.516;13.290;2023-05-31T11:59:08;26.60;30.90
73955;DHT22;62306;52.516;13.290;2023-05-31T12:01:36;26.30;31.50
73955;DHT22;62306;52.516;13.290;2023-05-31T12:04:03;26.10;32.50
73955;DHT22;62306;52.516;13.290;2023-05-31T12:06:30;26.20;32.70
73955;DHT22;62306;52.516;13.290;2023-05-31T12:08:57;26.40;32.70
73955;DHT22;62306;52.516;13.290;2023-05-31T12:11:24;26.50;32.80
73955;DHT22;62306;52.516;13.290;2023-05-31T12:13:53;26.60;32.70
73955;DHT22;62306;52.516;13.290;2023-05-31T12:16:21;26.40;33.20
73955;DHT22;62306;52.516;13.290;2023-05-31T12:18:48;26.30;33.40
73955;DHT22;62306;52.516;13.290;2023-05-31T12:21:15;26.40;33.20
73955;DHT22;62306;52.516;13.290;2023-05-31T12:23:52;26.30;33.80
73955;DHT22;62306;52.516;13.290;2023-05-31T12:26:19;26.10;33.70
73955;DHT22;62306;52.516;13.290;2023-05-31T12:28:48;25.80;34.70
73955;DHT22;62306;52.516;13.290;2023-05-31T12:31:25;25.90;33.90
73955;DHT22;62306;52.516;13.290;2023-05-31T12:33:57;26.00;32.80
73955;DHT22;62306;52.516;13.290;2023-05-31T12:36:25;26.00;32.80
73955;DHT22;62306;52.516;13.290;2023-05-31T12:38:55;25.80;33.40
73955;DHT22;62306;52.516;13.290;2023-05-31T12:41:22;25.90;34.20
73955;DHT22;62306;52.516;13.290;2023-05-31T12:43:49;26.00;34.10
73955;DHT22;62306;52.516;13.290;2023-05-31T12:46:16;26.20;33.50
73955;DHT22;62306;52.516;13.290;2023-05-31T12:48:46;26.40;33.10
73955;DHT22;62306;52.516;13.290;2023-05-31T12:51:19;26.50;33.10
73955;DHT22;62306;52.516;13.290;2023-05-31T12:53:45;26.80;31.80
73955;DHT22;62306;52.516;13.290;2023-05-31T12:56:12;26.80;31.90
73955;DHT22;62306;52.516;13.290;2023-05-31T12:58:39;26.70;32.30
73955;DHT22;62306;52.516;13.290;2023-05-31T13:01:06;26.70;31.80
73955;DHT22;62306;52.516;13.290;2023-05-31T13:03:33;26.50;32.60
73955;DHT22;62306;52.516;13.290;2023-05-31T13:06:01;26.50;33.00
73955;DHT22;62306;52.516;13.290;2023-05-31T13:08:28;26.30;32.00
73955;DHT22;62306;52.516;13.290;2023-05-31T13:10:55;26.40;32.40
73955;DHT22;62306;52.516;13.290;2023-05-31T13:13:21;26.40;33.00
73955;DHT22;62306;52.516;13.290;2023-05-31T13:15:48;26.60;32.50
73955;DHT22;62306;52.516;13.290;2023-05-31T13:18:15;26.80;32.90
73955;DHT22;62306;52.516;13.290;2023-05-31T13:20:42;27.00;32.90
73955;DHT22;62306;52.516;13.290;2023-05-31T13:23:10;27.00;32.60
73955;DHT22;62306;52.516;13.290;2023-05-31T13:25:37;27.10;32.80
73955;DHT22;62306;52.516;13.290;2023-05-31T13:28:06;27.00;32.70
73955;DHT22;62306;52.516;13.290;2023-05-31T13:30:32;26.80;33.20
73955;DHT22;62306;52.516;13.290;2023-05-31T13:32:59;26.90;33.00
73955;DHT22;62306;52.516;13.290;2023-05-31T13:35:26;26.90;33.10
73955;DHT22;62306;52.516;13.290;2023-05-31T13:37:53;27.00;33.00
73955;DHT22;62306;52.516;13.290;2023-05-31T13:40:21;27.30;33.70
73955;DHT22;62306;52.516;13.290;2023-05-31T13:42:47;27.00;32.90
73955;DHT22;62306;52.516;13.290;2023-05-31T13:45:14;27.00;32.40
73955;DHT22;62306;52.516;13.290;2023-05-31T13:47:41;26.60;33.00
73955;DHT22;62306;52.516;13.290;2023-05-31T13:50:08;26.40;33.00
73955;DHT22;62306;52.516;13.290;2023-05-31T13:52:35;26.20;33.30
73955;DHT22;62306;52.516;13.290;2023-05-31T13:55:02;26.10;33.00
73955;DHT22;62306;52.516;13.290;2023-05-31T13:57:30;26.00;33.40
73955;DHT22;62306;52.516;13.290;2023-05-31T13:59:57;26.20;33.70
73955;DHT22;62306;52.516;13.290;2023-05-31T14:02:24;26.20;32.90
73955;DHT22;62306;52.516;13.290;2023-05-31T14:04:51;26.40;33.20
73955;DHT22;62306;52.516;13.290;2023-05-31T14:07:17;26.50;32.50
73955;DHT22;62306;52.516;13.290;2023-05-31T14:09:44;26.60;32.30
73955;DHT22;62306;52.516;13.290;2023-05-31T14:12:11;26.50;31.80
73955;DHT22;62306;52.516;13.290;2023-05-31T14:14:39;26.50;31.20
73955;DHT22;62306;52.516;13.290;2023-05-31T14:17:06;26.50;31.00
73955;DHT22;62306;52.516;13.290;2023-05-31T14:19:33;26.50;31.20
73955;DHT22;62306;52.516;13.290;2023-05-31T14:22:00;26.50;30.90
73955;DHT22;62306;52.516;13.290;2023-05-31T14:24:27;26.40;30.30
73955;DHT22;62306;52.516;13.290;2023-05-31T14:26:54;26.30;30.30
73955;DHT22;62306;52.516;13.290;2023-05-31T14:29:21;26.20;29.70
73955;DHT22;62306;52.516;13.290;2023-05-31T14:31:49;26.30;30.00
73955;DHT22;62306;52.516;13.290;2023-05-31T14:34:16;26.40;29.90
73955;DHT22;62306;52.516;13.290;2023-05-31T14:36:43;26.40;29.70
73955;DHT22;62306;52.516;13.290;2023-05-31T14:39:10;26.50;29.40
73955;DHT22;62306;52.516;13.290;2023-05-31T14:41:36;26.50;29.70
73955;DHT22;62306;52.516;13.290;2023-05-31T14:44:03;26.40;29.30
73955;DHT22;62306;52.516;13.290;2023-05-31T14:46:31;26.40;29.80
73955;DHT22;62306;52.516;13.290;2023-05-31T14:48:59;26.30;29.90
73955;DHT22;62306;52.516;13.290;2023-05-31T14:51:26;26.20;30.40
73955;DHT22;62306;52.516;13.290;2023-05-31T14:53:55;26.20;30.20
73955;DHT22;62306;52.516;13.290;2023-05-31T14:56:22;26.20;30.20
73955;DHT22;62306;52.516;13.290;2023-05-31T14:58:49;25.90;30.70
73955;DHT22;62306;52.516;13.290;2023-05-31T15:01:16;25.90;31.00
73955;DHT22;62306;52.516;13.290;2023-05-31T15:03:45;26.10;31.50
73955;DHT22;62306;52.516;13.290;2023-05-31T15:06:13;26.30;31.10
73955;DHT22;62306;52.516;13.290;2023-05-31T15:08:39;26.40;31.70
73955;DHT22;62306;52.516;13.290;2023-05-31T15:11:06;26.60;31.40
73955;DHT22;62306;52.516;13.290;2023-05-31T15:13:33;26.70;31.50
73955;DHT22;62306;52.516;13.290;2023-05-31T15:16:00;26.80;31.40
73955;DHT22;62306;52.516;13.290;2023-05-31T15:18:26;27.00;30.50
73955;DHT22;62306;52.516;13.290;2023-05-31T15:20:53;27.00;30.60
73955;DHT22;62306;52.516;13.290;2023-05-31T15:23:21;27.10;30.60
73955;DHT22;62306;52.516;13.290;2023-05-31T15:25:48;27.20;30.90